Time;durP1;ratioP1;P1;durP2;ratioP2;P2;SDS_P1;SDS_P2;PMS_P1;PMS_P2;Temp;Humidity;BMP_temperature;BMP_pressure;BME280_temperature;BME280_humidity;BME280_pressure;Samples;Min_cycle;Max_cycle;Signal;HPM_P1;HPM_P2
2022/05/20 00:01:38;;;;;;;4.20;3.35;;;14.20;93.70;;;;;;5039929;28;20032;-60
2022/05/20 00:04:04;;;;;;;4.50;3.28;;;14.20;93.70;;;;;;5032172;28;20056;-59
2022/05/20 00:06:29;;;;;;;4.70;3.67;;;14.10;93.70;;;;;;5034421;28;20068;-59
2022/05/20 00:08:55;;;;;;;5.43;4.32;;;14.10;93.70;;;;;;5031918;28;20477;-59
2022/05/20 00:11:20;;;;;;;5.53;4.32;;;14.10;93.80;;;;;;5028799;28;20045;-59
2022/05/20 00:13:46;;;;;;;7.85;5.30;;;14.00;93.80;;;;;;5037200;28;20017;-59
2022/05/20 00:16:12;;;;;;;5.75;4.80;;;14.00;93.80;;;;;;5034445;28;20033;-59
2022/05/20 00:18:39;;;;;;;7.15;4.72;;;14.00;93.90;;;;;;5029150;28;20372;-59
2022/05/20 00:21:04;;;;;;;5.75;4.90;;;14.00;93.90;;;;;;5031689;28;20025;-59
2022/05/20 00:23:31;;;;;;;7.15;4.90;;;13.90;94.00;;;;;;5034355;28;20495;-59
2022/05/20 00:25:56;;;;;;;6.25;5.65;;;13.80;94.00;;;;;;5035604;28;20068;-59
2022/05/20 00:28:27;;;;;;;6.72;5.72;;;13.90;94.10;;;;;;5030440;28;20057;-59
2022/05/20 00:30:56;;;;;;;5.57;4.95;;;13.80;94.10;;;;;;5049550;28;20021;-59
2022/05/20 00:33:27;;;;;;;7.95;3.38;;;13.70;94.20;;;;;;5037014;28;20017;-59
2022/05/20 00:35:53;;;;;;;5.72;3.22;;;13.70;94.20;;;;;;5034084;28;20492;-59
2022/05/20 00:38:20;;;;;;;3.75;3.33;;;13.60;94.30;;;;;;5034412;28;20022;-59
2022/05/20 00:40:47;;;;;;;3.42;3.10;;;13.50;94.40;;;;;;5037773;28;20021;-59
2022/05/20 00:43:27;;;;;;;4.10;3.38;;;13.50;94.50;;;;;;5029942;28;20389;-59
2022/05/20 00:45:55;;;;;;;3.38;3.08;;;13.50;94.50;;;;;;5033363;28;20122;-59
2022/05/20 00:48:22;;;;;;;5.78;4.10;;;13.40;94.60;;;;;;5034212;28;20049;-59
2022/05/20 00:50:54;;;;;;;4.95;4.03;;;13.40;94.60;;;;;;5032367;28;20072;-59
2022/05/20 00:53:23;;;;;;;5.85;4.43;;;13.40;94.50;;;;;;5031193;28;20061;-59
2022/05/20 00:55:49;;;;;;;5.82;5.10;;;13.40;94.50;;;;;;5031260;28;20041;-59
2022/05/20 00:58:23;;;;;;;5.50;4.47;;;13.40;94.50;;;;;;5031189;28;20037;-59
2022/05/20 01:00:54;;;;;;;5.80;4.60;;;13.40;94.50;;;;;;5034261;28;20017;-59
2022/05/20 01:03:26;;;;;;;6.68;5.30;;;13.30;94.60;;;;;;5035994;28;20025;-60
2022/05/20 01:05:54;;;;;;;7.18;5.80;;;13.30;94.70;;;;;;5039992;28;20021;-60
2022/05/20 01:08:23;;;;;;;6.97;5.53;;;13.20;94.70;;;;;;5040702;28;20108;-60
2022/05/20 01:10:48;;;;;;;5.45;4.88;;;13.20;94.90;;;;;;5037831;28;20421;-60
2022/05/20 01:13:16;;;;;;;5.55;4.75;;;13.20;94.90;;;;;;5035104;28;20104;-60
2022/05/20 01:15:42;;;;;;;5.57;4.95;;;13.10;95.00;;;;;;5034875;28;20485;-60
2022/05/20 01:18:09;;;;;;;4.95;4.45;;;13.10;95.00;;;;;;5042011;28;20079;-60
2022/05/20 01:20:38;;;;;;;5.25;4.75;;;13.10;95.10;;;;;;5034522;28;20084;-60
2022/05/20 01:23:26;;;;;;;6.03;5.43;;;13.00;95.10;;;;;;5050472;28;20104;-60
2022/05/20 01:25:55;;;;;;;8.27;5.93;;;13.00;95.10;;;;;;5036817;28;20427;-60
2022/05/20 01:28:23;;;;;;;7.60;6.03;;;13.00;95.30;;;;;;5040560;28;20025;-60
2022/05/20 01:30:56;;;;;;;7.45;6.60;;;12.90;95.30;;;;;;5040364;28;20037;-60
2022/05/20 01:33:27;;;;;;;7.18;6.40;;;13.00;95.30;;;;;;5034705;28;20026;-60
2022/05/20 01:35:52;;;;;;;7.10;6.30;;;12.90;95.30;;;;;;5040208;28;20028;-60
2022/05/20 01:38:18;;;;;;;8.02;6.70;;;12.90;95.40;;;;;;5035418;28;20017;-60
2022/05/20 01:40:56;;;;;;;7.78;6.57;;;12.90;95.40;;;;;;5038071;28;20060;-60
2022/05/20 01:43:44;;;;;;;7.88;6.95;;;12.90;95.40;;;;;;5034422;28;20067;-60
2022/05/20 01:46:33;;;;;;;9.10;7.00;;;12.80;95.50;;;;;;5041768;28;20029;-60
2022/05/20 01:49:17;;;;;;;7.43;6.47;;;12.80;95.50;;;;;;5034362;28;20124;-60
2022/05/20 01:51:56;;;;;;;8.98;6.95;;;12.80;95.50;;;;;;5032366;28;20038;-60
2022/05/20 01:54:50;;;;;;;8.83;7.47;;;12.70;95.60;;;;;;5037328;28;20505;-60
2022/05/20 01:57:39;;;;;;;13.20;7.30;;;12.70;95.60;;;;;;5034364;28;20750;-60
2022/05/20 02:00:25;;;;;;;8.25;7.40;;;12.70;95.60;;;;;;5034409;28;20033;-59
2022/05/20 02:03:11;;;;;;;8.38;7.47;;;12.70;95.70;;;;;;5034375;28;20848;-60
2022/05/20 02:06:00;;;;;;;34.80;6.93;;;12.60;95.80;;;;;;5036780;28;20418;-59
2022/05/20 02:08:38;;;;;;;4.95;4.45;;;12.60;95.80;;;;;;5034268;28;20030;-59
2022/05/20 02:11:13;;;;;;;4.20;3.60;;;12.50;95.80;;;;;;5036872;28;20029;-60
2022/05/20 02:13:45;;;;;;;3.08;2.78;;;12.50;95.90;;;;;;5039267;28;20029;-59
2022/05/20 02:16:16;;;;;;;3.63;3.03;;;12.40;96.00;;;;;;5033433;28;20029;-59
2022/05/20 02:18:49;;;;;;;8.23;3.28;;;12.40;96.10;;;;;;5034163;28;20051;-60
2022/05/20 02:21:18;;;;;;;15.80;3.08;;;12.40;96.20;;;;;;5044799;28;20025;-59
2022/05/20 02:23:49;;;;;;;3.03;2.72;;;12.30;96.20;;;;;;5037472;28;20022;-59
2022/05/20 02:26:17;;;;;;;3.50;2.78;;;12.30;96.30;;;;;;5042697;28;20496;-59
2022/05/20 02:28:50;;;;;;;6.43;3.30;;;12.30;96.30;;;;;;5034704;28;20037;-59
2022/05/20 02:31:22;;;;;;;4.93;3.17;;;12.30;96.40;;;;;;5037503;28;20022;-59
2022/05/20 02:33:48;;;;;;;4.30;2.97;;;12.30;96.30;;;;;;5036410;28;20041;-59
2022/05/20 02:36:33;;;;;;;6.53;3.65;;;12.30;96.40;;;;;;5031402;28;20025;-59
2022/05/20 02:38:59;;;;;;;5.10;4.63;;;12.30;96.30;;;;;;5033320;28;20040;-59
2022/05/20 02:41:25;;;;;;;6.00;5.30;;;12.30;96.40;;;;;;5033503;28;20117;-60
2022/05/20 02:43:51;;;;;;;5.72;4.90;;;12.30;96.40;;;;;;5032545;28;20096;-59
2022/05/20 02:46:17;;;;;;;6.75;6.05;;;12.30;96.40;;;;;;5049349;28;20035;-59
2022/05/20 02:48:42;;;;;;;5.78;5.05;;;12.30;96.40;;;;;;5031271;28;20024;-59
2022/05/20 02:51:08;;;;;;;7.18;4.95;;;12.30;96.40;;;;;;5037824;28;20049;-59
2022/05/20 02:53:33;;;;;;;5.60;5.10;;;12.30;96.40;;;;;;5045608;28;20572;-59
2022/05/20 02:56:00;;;;;;;6.88;4.53;;;12.30;96.50;;;;;;5038584;28;20079;-59
2022/05/20 03:04:10;;;;;;;15.65;3.83;;;12.20;96.70;;;;;;5036118;28;20027;-60
2022/05/20 03:06:48;;;;;;;3.20;2.90;;;12.20;96.80;;;;;;5035755;28;20559;-59
2022/05/20 03:09:16;;;;;;;2.97;2.67;;;12.20;96.80;;;;;;5032913;28;20116;-59
2022/05/20 03:11:42;;;;;;;4.20;2.78;;;12.10;96.90;;;;;;5041055;28;20035;-59
2022/05/20 03:14:09;;;;;;;4.38;2.65;;;12.10;97.00;;;;;;5036943;28;20053;-59
2022/05/20 03:16:37;;;;;;;7.03;2.42;;;12.10;97.00;;;;;;5030137;28;20844;-59
2022/05/20 03:19:04;;;;;;;5.88;2.38;;;12.10;97.00;;;;;;5041222;28;20025;-59
2022/05/20 03:21:30;;;;;;;4.40;2.25;;;12.00;97.10;;;;;;5030010;28;20025;-59
2022/05/20 03:23:55;;;;;;;3.67;2.90;;;12.00;97.20;;;;;;5031269;28;20029;-60
2022/05/20 03:26:21;;;;;;;4.18;2.85;;;12.00;97.20;;;;;;5031619;28;20029;-59
2022/05/20 03:28:47;;;;;;;4.60;4.00;;;12.00;97.30;;;;;;5040531;28;20017;-60
2022/05/20 03:31:14;;;;;;;5.15;3.08;;;12.00;97.30;;;;;;5035516;28;20021;-59
2022/05/20 03:33:41;;;;;;;4.75;2.50;;;11.90;97.30;;;;;;5036422;28;20026;-59
2022/05/20 03:36:07;;;;;;;4.90;3.20;;;11.90;97.30;;;;;;5036075;28;20017;-59
2022/05/20 03:38:34;;;;;;;3.70;3.22;;;11.80;97.50;;;;;;5033810;28;20029;-59
2022/05/20 03:41:00;;;;;;;3.78;3.38;;;11.80;97.70;;;;;;5035113;28;20029;-59
2022/05/20 03:43:26;;;;;;;5.00;4.30;;;11.80;97.80;;;;;;5035046;28;20432;-59
2022/05/20 03:45:53;;;;;;;5.28;4.10;;;11.80;97.80;;;;;;5035060;28;20024;-59
2022/05/20 03:48:18;;;;;;;6.13;4.93;;;11.80;97.80;;;;;;5037604;28;20048;-59
2022/05/20 03:50:44;;;;;;;5.65;4.55;;;11.80;97.80;;;;;;5038433;28;20470;-59
2022/05/20 03:53:10;;;;;;;6.57;5.65;;;11.80;97.80;;;;;;5034072;28;20559;-60
2022/05/20 03:55:35;;;;;;;6.35;5.65;;;11.80;97.80;;;;;;5031903;28;20025;-59
2022/05/20 03:58:01;;;;;;;8.45;6.53;;;11.80;97.80;;;;;;5034876;28;20060;-59
2022/05/20 04:00:28;;;;;;;8.65;6.88;;;11.90;97.80;;;;;;5035974;28;20021;-59
2022/05/20 04:02:53;;;;;;;11.88;9.98;;;11.90;97.80;;;;;;5033482;28;20389;-59
2022/05/20 04:05:19;;;;;;;14.50;9.80;;;11.90;97.80;;;;;;5029214;28;20040;-59
2022/05/20 04:07:44;;;;;;;15.85;9.45;;;11.90;97.90;;;;;;5038354;28;20485;-59
2022/05/20 04:10:10;;;;;;;13.77;10.68;;;11.90;98.00;;;;;;5035093;28;20029;-59
2022/05/20 04:12:42;;;;;;;18.10;11.77;;;11.90;98.30;;;;;;5032974;28;20493;-59
2022/05/20 04:15:10;;;;;;;15.63;11.50;;;11.80;98.80;;;;;;5037637;28;20029;-59
2022/05/20 04:17:36;;;;;;;15.80;9.80;;;11.70;99.40;;;;;;5031771;28;20409;-59
2022/05/20 04:20:04;;;;;;;14.35;12.90;;;11.60;99.70;;;;;;5036966;28;20028;-59
2022/05/20 04:22:35;;;;;;;13.93;12.32;;;11.60;99.90;;;;;;5037138;28;20024;-59
2022/05/20 04:25:00;;;;;;;11.70;10.60;;;11.60;99.90;;;;;;5028876;28;20029;-59
2022/05/20 04:27:29;;;;;;;15.27;13.70;;;11.60;99.90;;;;;;5032708;28;20028;-59
2022/05/20 04:29:56;;;;;;;18.65;16.40;;;11.60;99.90;;;;;;5040736;28;20384;-59
2022/05/20 04:32:21;;;;;;;17.17;15.48;;;11.70;99.90;;;;;;5037203;28;20022;-59
2022/05/20 04:34:47;;;;;;;17.58;15.77;;;11.60;99.90;;;;;;5029908;28;20032;-59
2022/05/20 04:37:13;;;;;;;14.15;12.75;;;11.70;99.90;;;;;;5035437;28;20111;-59
2022/05/20 04:39:40;;;;;;;13.00;11.52;;;11.70;99.90;;;;;;5031333;28;20064;-59
2022/05/20 04:47:35;;;;;;;10.00;9.00;;;11.90;99.90;;;;;;5030914;28;20052;-59
2022/05/20 04:50:02;;;;;;;11.57;9.40;;;11.90;99.90;;;;;;5032539;28;20654;-59
2022/05/20 04:52:27;;;;;;;10.55;9.48;;;12.00;99.90;;;;;;5031860;28;20046;-59
2022/05/20 04:54:53;;;;;;;11.88;9.75;;;12.00;99.90;;;;;;5047836;28;20032;-59
2022/05/20 04:57:29;;;;;;;10.00;9.10;;;12.10;99.90;;;;;;5032475;28;20030;-59
2022/05/20 04:59:59;;;;;;;10.55;9.45;;;12.10;99.90;;;;;;5032692;28;20024;-59
2022/05/20 05:02:26;;;;;;;12.13;9.52;;;12.10;99.90;;;;;;5047776;28;20026;-59
2022/05/20 05:04:51;;;;;;;9.68;8.73;;;12.10;99.90;;;;;;5034262;28;20092;-60
2022/05/20 05:07:17;;;;;;;11.38;10.27;;;12.20;99.90;;;;;;5034217;28;20499;-59
2022/05/20 05:09:44;;;;;;;12.13;10.90;;;12.20;99.90;;;;;;5039203;28;20038;-59
2022/05/20 05:12:11;;;;;;;11.55;10.35;;;12.30;99.90;;;;;;5031900;28;20028;-59
2022/05/20 05:14:42;;;;;;;11.77;10.23;;;12.30;99.90;;;;;;5031787;28;20034;-59
2022/05/20 05:17:09;;;;;;;12.35;11.15;;;12.40;99.90;;;;;;5031586;28;20393;-59
2022/05/20 05:19:36;;;;;;;13.30;11.05;;;12.50;99.90;;;;;;5032171;28;20042;-59
2022/05/20 05:22:04;;;;;;;13.70;12.32;;;12.60;99.90;;;;;;5032267;28;20405;-59
2022/05/20 05:24:30;;;;;;;13.48;11.95;;;12.60;99.90;;;;;;5030607;28;20060;-59
2022/05/20 05:26:56;;;;;;;13.85;12.45;;;12.60;99.90;;;;;;5031800;28;20037;-59
2022/05/20 05:29:21;;;;;;;13.63;12.30;;;12.70;99.90;;;;;;5031961;28;20060;-59
2022/05/20 05:31:48;;;;;;;13.77;12.48;;;12.70;99.90;;;;;;5032176;28;20022;-59
2022/05/20 05:34:14;;;;;;;13.73;12.43;;;12.80;99.90;;;;;;5047312;28;20021;-59
2022/05/20 05:36:40;;;;;;;13.38;12.13;;;12.80;99.90;;;;;;5046683;28;20062;-59
2022/05/20 05:39:06;;;;;;;12.73;11.52;;;12.80;99.90;;;;;;5050896;28;20029;-59
2022/05/20 05:41:31;;;;;;;13.80;12.40;;;12.90;99.90;;;;;;5051821;28;20504;-59
2022/05/20 05:44:01;;;;;;;15.75;14.25;;;13.00;99.90;;;;;;5050364;28;20068;-59
2022/05/20 05:46:26;;;;;;;13.73;12.38;;;13.00;99.90;;;;;;5051734;28;20495;-59
2022/05/20 05:48:52;;;;;;;15.48;13.98;;;13.00;99.90;;;;;;5051834;28;20025;-59
2022/05/20 05:51:17;;;;;;;19.42;17.52;;;13.10;99.90;;;;;;5054659;28;20045;-59
2022/05/20 05:53:43;;;;;;;18.67;16.75;;;13.10;99.90;;;;;;5055192;28;20465;-59
2022/05/20 05:56:09;;;;;;;18.73;16.60;;;13.20;99.90;;;;;;5054195;28;20465;-59
2022/05/20 05:58:35;;;;;;;19.52;17.52;;;13.30;99.90;;;;;;5053958;28;20024;-59
2022/05/20 06:01:02;;;;;;;25.60;21.88;;;13.40;99.90;;;;;;5055216;28;20017;-59
2022/05/20 06:03:27;;;;;;;19.42;17.33;;;13.50;99.90;;;;;;5055446;28;20100;-59
2022/05/20 06:05:53;;;;;;;18.67;15.50;;;13.60;99.90;;;;;;5055159;28;20099;-59
2022/05/20 06:08:19;;;;;;;19.00;16.15;;;13.70;99.90;;;;;;5055302;28;20029;-60
2022/05/20 06:10:45;;;;;;;19.27;17.05;;;13.80;99.90;;;;;;5055374;28;20032;-60
2022/05/20 06:13:11;;;;;;;15.60;13.45;;;13.90;99.90;;;;;;5053923;28;20055;-59
2022/05/20 06:15:38;;;;;;;21.75;17.10;;;14.00;99.90;;;;;;5055174;28;20108;-59
2022/05/20 06:18:03;;;;;;;16.48;14.40;;;14.10;99.90;;;;;;5055119;28;20541;-59
2022/05/20 06:20:29;;;;;;;17.50;14.82;;;14.20;99.90;;;;;;5054895;28;20024;-60
2022/05/20 06:22:56;;;;;;;14.45;12.55;;;14.30;99.90;;;;;;5055062;28;20071;-60
2022/05/20 06:25:22;;;;;;;18.67;15.25;;;14.30;99.90;;;;;;5054852;28;20420;-59
2022/05/20 06:27:47;;;;;;;16.08;13.45;;;14.40;99.90;;;;;;5049381;28;20024;-59
2022/05/20 06:30:18;;;;;;;14.07;11.82;;;14.40;99.90;;;;;;5054892;28;20550;-59
2022/05/20 06:32:43;;;;;;;21.88;15.35;;;14.50;99.90;;;;;;5054698;28;20354;-59
2022/05/20 06:40:44;;;;;;;18.52;12.20;;;14.60;99.90;;;;;;5054048;28;20166;-60
2022/05/20 06:43:13;;;;;;;15.88;10.13;;;14.60;99.90;;;;;;5054700;28;20103;-60
2022/05/20 06:45:39;;;;;;;10.35;8.40;;;14.70;99.90;;;;;;5054461;28;20044;-59
2022/05/20 06:48:05;;;;;;;8.98;7.93;;;14.70;99.90;;;;;;5054560;28;20041;-59
2022/05/20 06:50:31;;;;;;;10.45;7.55;;;14.80;99.90;;;;;;5054226;28;20021;-59
2022/05/20 06:52:56;;;;;;;11.07;8.65;;;14.90;99.90;;;;;;5054562;28;20393;-60
2022/05/20 06:55:22;;;;;;;15.23;10.80;;;15.00;99.70;;;;;;5053255;28;20115;-59
2022/05/20 06:57:48;;;;;;;15.52;10.35;;;15.10;98.50;;;;;;5054426;28;20029;-59
2022/05/20 07:00:14;;;;;;;8.98;6.78;;;15.10;98.00;;;;;;5054287;28;20079;-59
2022/05/20 07:02:40;;;;;;;9.77;6.15;;;15.20;97.90;;;;;;5054350;28;20052;-59
2022/05/20 07:05:08;;;;;;;10.18;7.00;;;15.30;97.70;;;;;;5054257;28;20090;-59
2022/05/20 07:07:34;;;;;;;9.60;6.20;;;15.30;97.50;;;;;;5054170;28;20031;-60
2022/05/20 07:10:00;;;;;;;6.47;5.03;;;15.40;97.30;;;;;;5054141;28;20025;-60
2022/05/20 07:12:26;;;;;;;8.13;4.75;;;15.50;97.10;;;;;;5054046;28;20025;-59
2022/05/20 07:14:51;;;;;;;7.78;4.60;;;15.60;96.90;;;;;;5053223;28;20025;-61
2022/05/20 07:17:18;;;;;;;8.90;4.30;;;15.70;96.50;;;;;;5052913;28;20473;-59
2022/05/20 07:19:44;;;;;;;8.43;4.43;;;15.70;96.30;;;;;;5049716;28;20400;-59
2022/05/20 07:22:09;;;;;;;7.03;3.40;;;15.80;95.80;;;;;;5047035;28;20469;-59
2022/05/20 07:24:36;;;;;;;5.70;4.03;;;15.90;95.30;;;;;;5049585;28;20071;-59
2022/05/20 07:27:02;;;;;;;7.07;3.85;;;15.90;94.80;;;;;;5049194;28;20033;-59
2022/05/20 07:29:28;;;;;;;5.65;3.95;;;16.00;94.30;;;;;;5052015;28;20024;-60
2022/05/20 07:31:53;;;;;;;6.43;4.40;;;16.10;94.00;;;;;;5053514;28;20021;-60
2022/05/20 07:34:18;;;;;;;6.60;4.93;;;16.20;93.80;;;;;;5053480;28;20032;-59
2022/05/20 07:36:44;;;;;;;9.95;5.70;;;16.30;93.60;;;;;;5053536;28;20060;-59
2022/05/20 07:39:09;;;;;;;8.15;5.28;;;16.40;93.50;;;;;;5053614;28;20473;-60
2022/05/20 07:41:35;;;;;;;9.00;6.78;;;16.50;93.50;;;;;;5051611;28;20502;-60
2022/05/20 07:44:02;;;;;;;13.75;7.20;;;16.60;93.30;;;;;;5046380;28;20660;-60
2022/05/20 07:46:28;;;;;;;11.23;7.25;;;16.70;93.00;;;;;;5046021;28;20048;-59
2022/05/20 07:48:54;;;;;;;8.15;7.07;;;16.80;92.80;;;;;;5034186;28;20405;-60
2022/05/20 07:51:22;;;;;;;12.50;7.50;;;16.90;92.30;;;;;;5050942;28;20064;-59
2022/05/20 07:53:58;;;;;;;9.18;7.78;;;17.00;92.30;;;;;;5052040;28;20021;-60
2022/05/20 07:56:36;;;;;;;9.38;7.80;;;17.20;91.80;;;;;;5053130;28;20091;-60
2022/05/20 07:59:08;;;;;;;10.40;7.03;;;17.30;91.70;;;;;;5036838;28;20045;-59
2022/05/20 08:01:37;;;;;;;10.80;7.05;;;17.40;91.40;;;;;;5033094;28;20104;-59
2022/05/20 08:06:57;;;;;;;8.73;5.28;;;17.70;90.80;;;;;;5033267;28;20044;-60
2022/05/20 08:09:25;;;;;;;7.10;5.03;;;17.80;90.60;;;;;;5033486;28;20435;-59
2022/05/20 08:11:50;;;;;;;7.05;4.38;;;17.90;90.50;;;;;;5033126;28;20143;-60
2022/05/20 08:14:16;;;;;;;6.63;4.93;;;18.00;90.30;;;;;;5048183;28;20579;-60
2022/05/20 08:16:42;;;;;;;6.97;5.00;;;18.10;89.70;;;;;;5051147;28;20554;-59
2022/05/20 08:19:07;;;;;;;8.32;4.78;;;18.20;88.50;;;;;;5050435;28;20036;-60
2022/05/20 08:21:33;;;;;;;7.95;5.00;;;18.40;88.00;;;;;;5052675;28;20032;-60
2022/05/20 08:23:58;;;;;;;6.30;4.57;;;18.50;86.50;;;;;;5052661;28;20033;-60
2022/05/20 08:26:24;;;;;;;6.05;4.70;;;18.70;86.00;;;;;;5048480;28;20033;-60
2022/05/20 08:28:49;;;;;;;8.18;4.57;;;18.80;85.80;;;;;;5052692;28;20465;-60
2022/05/20 08:31:16;;;;;;;4.00;3.13;;;18.80;85.40;;;;;;5067738;28;20037;-60
2022/05/20 08:33:43;;;;;;;4.45;2.88;;;19.00;85.10;;;;;;5057793;28;20100;-60
2022/05/20 08:36:09;;;;;;;4.60;3.63;;;19.10;84.60;;;;;;5070956;28;20511;-60
2022/05/20 08:38:35;;;;;;;5.18;3.42;;;19.30;84.00;;;;;;5068011;28;20037;-60
2022/05/20 08:41:01;;;;;;;7.35;3.67;;;19.40;83.60;;;;;;5054680;28;20028;-60
2022/05/20 08:43:33;;;;;;;5.93;3.88;;;19.50;83.20;;;;;;5069825;28;20028;-60
2022/05/20 08:46:00;;;;;;;7.68;3.65;;;19.60;82.70;;;;;;5045326;28;20463;-60
2022/05/20 08:48:26;;;;;;;5.80;3.33;;;19.70;82.30;;;;;;5052655;28;20523;-60
2022/05/20 08:50:55;;;;;;;4.18;2.90;;;19.80;80.80;;;;;;5052871;28;20033;-60
2022/05/20 08:53:26;;;;;;;5.60;3.22;;;19.90;79.80;;;;;;5054792;28;20044;-60
2022/05/20 08:55:52;;;;;;;4.03;2.72;;;20.00;76.30;;;;;;5050025;28;20021;-60
2022/05/20 08:58:21;;;;;;;4.68;2.58;;;19.90;76.00;;;;;;5052738;28;20032;-60
2022/05/20 09:00:47;;;;;;;5.23;2.33;;;20.00;76.70;;;;;;5050490;28;20040;-60
2022/05/20 09:03:13;;;;;;;4.40;2.17;;;20.20;76.50;;;;;;5053938;28;20603;-60
2022/05/20 09:05:41;;;;;;;4.15;2.30;;;20.30;76.30;;;;;;5050889;28;20496;-60
2022/05/20 09:08:25;;;;;;;6.10;1.92;;;20.50;75.60;;;;;;5050134;28;20032;-60
2022/05/20 09:10:56;;;;;;;4.72;1.73;;;20.60;74.80;;;;;;5050050;28;20024;-60
2022/05/20 09:13:21;;;;;;;4.30;2.05;;;20.70;74.30;;;;;;5054948;28;20013;-60
2022/05/20 09:16:04;;;;;;;4.70;2.65;;;20.80;73.30;;;;;;5049981;28;20021;-60
2022/05/20 09:18:30;;;;;;;4.68;2.28;;;21.00;72.60;;;;;;5051023;28;20429;-60
2022/05/20 09:20:56;;;;;;;4.70;2.28;;;21.10;71.40;;;;;;5047242;28;20026;-60
2022/05/20 09:23:24;;;;;;;6.45;2.38;;;21.10;70.60;;;;;;5054504;28;20031;-60
2022/05/20 09:26:09;;;;;;;6.85;3.80;;;21.10;70.50;;;;;;5055252;28;20036;-60
2022/05/20 09:28:47;;;;;;;8.40;4.05;;;21.20;69.40;;;;;;5056399;28;20029;-61
2022/05/20 09:31:21;;;;;;;6.55;4.30;;;21.10;70.50;;;;;;5056562;28;20570;-60
2022/05/20 09:33:58;;;;;;;5.20;3.40;;;20.90;68.80;;;;;;5054204;28;20437;-60
2022/05/20 09:36:41;;;;;;;4.72;2.78;;;21.00;70.10;;;;;;5055758;28;20021;-60
2022/05/20 09:39:10;;;;;;;5.63;2.70;;;21.10;69.70;;;;;;5057215;28;20027;-60
2022/05/20 09:41:45;;;;;;;4.20;2.30;;;21.30;67.60;;;;;;5057334;28;20027;-60
2022/05/20 09:44:13;;;;;;;5.07;2.95;;;21.30;66.80;;;;;;5055976;28;20119;-61
2022/05/20 09:46:51;;;;;;;5.43;3.30;;;21.40;67.60;;;;;;5041029;28;20560;-60
2022/05/20 09:49:33;;;;;;;4.00;2.30;;;21.40;68.40;;;;;;5052891;28;20482;-60
2022/05/20 09:52:00;;;;;;;4.05;2.95;;;21.50;68.90;;;;;;5053981;28;20079;-60
2022/05/20 09:54:35;;;;;;;7.28;2.90;;;21.60;68.50;;;;;;5055669;28;20391;-60
2022/05/20 09:57:05;;;;;;;4.13;2.35;;;21.70;68.30;;;;;;5055963;28;20025;-60
2022/05/20 09:59:46;;;;;;;3.47;1.75;;;21.90;68.10;;;;;;5052682;28;20018;-60
2022/05/20 10:02:48;;;;;;;3.35;1.70;;;22.10;68.00;;;;;;5049565;28;20029;-60
2022/05/20 10:05:31;;;;;;;4.60;2.40;;;22.40;67.20;;;;;;5053452;28;20068;-60
2022/05/20 10:08:12;;;;;;;5.22;2.90;;;22.50;66.30;;;;;;5053307;28;20032;-60
2022/05/20 10:10:43;;;;;;;5.40;3.45;;;22.50;64.70;;;;;;5050497;28;20033;-60
2022/05/20 10:13:32;;;;;;;7.07;3.97;;;22.30;64.40;;;;;;5052055;28;20099;-61
2022/05/20 10:16:04;;;;;;;3.88;2.33;;;22.20;65.00;;;;;;5052694;28;20473;-61
2022/05/20 10:18:42;;;;;;;5.80;3.15;;;22.30;65.60;;;;;;5054878;28;20024;-60
2022/05/20 10:21:42;;;;;;;5.15;3.70;;;22.50;65.90;;;;;;5054881;28;20496;-60
2022/05/20 10:24:19;;;;;;;7.43;3.63;;;22.60;65.60;;;;;;5054474;28;20610;-60
2022/05/20 10:26:57;;;;;;;4.40;3.35;;;22.80;65.60;;;;;;5054888;28;20025;-60
2022/05/20 10:33:00;;;;;;;6.78;2.90;;;23.10;65.10;;;;;;5055092;28;20036;-61
2022/05/20 10:35:45;;;;;;;5.28;3.25;;;23.30;64.70;;;;;;5047087;28;20049;-60
2022/05/20 10:38:38;;;;;;;4.72;3.55;;;23.60;64.70;;;;;;5054447;28;20505;-60
2022/05/20 10:41:12;;;;;;;5.32;3.92;;;23.70;64.30;;;;;;5053247;28;20063;-60
2022/05/20 10:50:23;;;;;;;6.50;4.57;;;24.20;63.10;;;;;;5036414;28;20034;-60
2022/05/20 10:53:06;;;;;;;5.40;4.38;;;24.20;63.10;;;;;;5034443;28;20497;-60
2022/05/20 10:55:47;;;;;;;7.95;4.95;;;24.20;63.00;;;;;;5034529;28;20028;-61
2022/05/20 10:58:31;;;;;;;5.63;3.78;;;24.20;63.20;;;;;;5043250;28;20099;-60
2022/05/20 11:01:01;;;;;;;9.40;5.03;;;24.10;63.90;;;;;;5041482;28;20112;-60
2022/05/20 11:03:54;;;;;;;7.45;4.57;;;23.90;64.00;;;;;;5041584;28;20031;-61
2022/05/20 11:06:57;;;;;;;7.88;5.45;;;23.80;64.80;;;;;;5050676;28;20123;-60
2022/05/20 11:09:48;;;;;;;6.05;4.00;;;23.60;63.40;;;;;;5049690;28;20017;-60
2022/05/20 11:12:22;;;;;;;6.97;4.47;;;23.60;64.70;;;;;;5047566;28;20053;-60
2022/05/20 11:15:24;;;;;;;6.45;4.30;;;23.70;64.90;;;;;;5048145;28;20021;-61
2022/05/20 11:18:26;;;;;;;8.90;4.97;;;23.90;64.90;;;;;;5048511;28;20131;-60
2022/05/20 11:21:02;;;;;;;9.05;5.95;;;24.10;64.90;;;;;;5030247;28;20037;-61
2022/05/20 11:23:58;;;;;;;9.25;5.70;;;24.20;64.90;;;;;;5032519;28;20105;-60
2022/05/20 11:26:36;;;;;;;7.72;5.88;;;24.30;64.80;;;;;;5049657;28;20044;-61
2022/05/20 11:29:18;;;;;;;11.13;6.77;;;24.30;64.90;;;;;;5051911;28;20013;-60
2022/05/20 11:31:54;;;;;;;10.95;7.55;;;24.30;65.20;;;;;;5051968;28;20017;-60
2022/05/20 11:34:44;;;;;;;12.07;8.20;;;24.30;64.80;;;;;;5051764;28;20516;-61
2022/05/20 11:37:16;;;;;;;11.68;7.07;;;24.30;64.20;;;;;;5042577;28;20354;-61
2022/05/20 11:39:57;;;;;;;9.38;6.82;;;24.40;64.50;;;;;;5050450;28;20032;-61
2022/05/20 11:42:49;;;;;;;8.32;6.35;;;24.40;64.70;;;;;;5049226;28;20028;-61
2022/05/20 11:45:32;;;;;;;9.18;7.30;;;24.40;64.80;;;;;;5051871;28;20028;-61
2022/05/20 11:48:06;;;;;;;9.60;5.97;;;24.30;64.70;;;;;;5047478;28;20079;-61
2022/05/20 11:50:45;;;;;;;10.32;7.57;;;24.20;65.10;;;;;;5051934;28;20021;-61
2022/05/20 11:53:27;;;;;;;;;;;24.20;65.60;;;;;;5053789;28;20480;-60
2022/05/20 11:56:08;;;;;;;8.90;6.97;;;24.10;65.80;;;;;;5053142;28;20284;-60
2022/05/20 11:59:06;;;;;;;13.15;8.80;;;24.10;66.00;;;;;;5052251;28;20488;-61
2022/05/20 12:01:34;;;;;;;12.02;10.35;;;24.00;65.80;;;;;;5042879;28;20382;-60
2022/05/20 12:04:06;;;;;;;12.77;10.02;;;23.80;66.00;;;;;;5048703;28;20025;-61
2022/05/20 12:06:41;;;;;;;12.70;9.65;;;23.70;66.60;;;;;;5048232;28;20066;-61
2022/05/20 12:09:35;;;;;;;11.60;9.13;;;23.60;67.30;;;;;;5051494;28;20013;-60
2022/05/20 12:12:29;;;;;;;13.50;10.50;;;23.40;67.40;;;;;;5047395;28;20025;-60
2022/05/20 12:15:12;;;;;;;14.63;10.18;;;23.20;68.10;;;;;;5049823;28;20108;-61
2022/05/20 12:17:41;;;;;;;10.88;8.70;;;23.20;68.60;;;;;;5052148;28;20469;-61
2022/05/20 12:26:11;;;;;;;12.65;7.75;;;22.90;69.60;;;;;;5052341;28;20367;-60
2022/05/20 12:28:39;;;;;;;14.15;11.48;;;22.80;70.20;;;;;;5044112;28;20170;-61
2022/05/20 12:31:09;;;;;;;12.43;9.75;;;22.80;71.00;;;;;;5036915;28;20033;-61
2022/05/20 12:34:09;;;;;;;9.93;8.00;;;22.70;71.60;;;;;;5067374;28;20374;-60
2022/05/20 12:36:43;;;;;;;13.60;10.85;;;22.60;72.30;;;;;;5062016;28;20099;-60
2022/05/20 12:39:12;;;;;;;16.02;11.02;;;22.40;73.70;;;;;;5067454;28;20032;-60
2022/05/20 12:41:44;;;;;;;13.80;9.50;;;22.30;75.40;;;;;;5053822;28;20491;-60
2022/05/20 12:44:15;;;;;;;8.73;7.40;;;22.20;76.20;;;;;;5059458;28;20111;-60
2022/05/20 12:47:06;;;;;;;11.00;8.25;;;22.20;76.60;;;;;;5062675;28;20025;-60
2022/05/20 12:49:36;;;;;;;8.77;7.50;;;22.20;77.10;;;;;;5055056;28;20477;-60
2022/05/20 12:52:31;;;;;;;10.05;8.40;;;22.00;78.10;;;;;;5065240;28;20102;-60
2022/05/20 12:55:04;;;;;;;12.85;9.68;;;22.00;78.70;;;;;;5051354;28;20112;-60
2022/05/20 12:57:34;;;;;;;11.27;8.38;;;21.80;80.50;;;;;;5050000;28;20135;-60
2022/05/20 13:00:06;;;;;;;16.95;11.82;;;21.70;81.00;;;;;;5050863;28;20099;-60
2022/05/20 13:02:38;;;;;;;12.55;10.05;;;21.70;82.70;;;;;;5057938;28;20058;-60
2022/05/20 13:05:18;;;;;;;14.30;11.55;;;21.60;83.50;;;;;;5055188;28;20032;-60
2022/05/20 13:07:45;;;;;;;9.88;8.30;;;21.50;84.50;;;;;;5046229;28;20021;-60
2022/05/20 13:10:41;;;;;;;11.07;8.98;;;21.50;84.70;;;;;;5070526;28;20017;-60
2022/05/20 13:13:11;;;;;;;14.98;11.20;;;21.60;84.70;;;;;;5067082;28;20043;-60
2022/05/20 13:15:42;;;;;;;11.85;8.98;;;21.50;85.80;;;;;;5061066;28;20024;-60
2022/05/20 13:18:22;;;;;;;14.10;11.65;;;21.70;85.70;;;;;;5070355;28;20140;-60
2022/05/20 13:20:51;;;;;;;12.55;10.43;;;21.70;86.10;;;;;;5070876;28;20089;-60
2022/05/20 13:23:23;;;;;;;13.05;10.55;;;21.70;86.40;;;;;;5060821;28;20110;-60
2022/05/20 13:25:50;;;;;;;14.65;11.00;;;21.80;86.50;;;;;;5059188;28;20067;-60
2022/05/20 13:28:43;;;;;;;16.25;12.23;;;21.80;87.00;;;;;;5065157;28;20354;-60
2022/05/20 13:31:11;;;;;;;17.48;11.48;;;21.80;87.30;;;;;;5062369;28;20060;-60
2022/05/20 13:33:42;;;;;;;16.55;12.75;;;21.60;88.40;;;;;;5074793;28;20016;-60
2022/05/20 13:36:12;;;;;;;19.73;15.15;;;21.50;89.10;;;;;;5065407;28;20025;-60
2022/05/20 13:38:45;;;;;;;15.18;11.35;;;21.50;90.20;;;;;;5071538;28;20036;-60